createdAt,value
2023-05-20T00:00:11.546Z,2.50
2023-05-20T00:01:13.194Z,2.43
2023-05-20T00:02:14.638Z,2.20
2023-05-20T00:03:16.648Z,2.47
2023-05-20T00:04:18.376Z,2.50
2023-05-20T00:05:20.105Z,2.30
2023-05-20T00:06:21.602Z,2.20
2023-05-20T00:07:23.055Z,2.33
2023-05-20T00:08:24.580Z,2.10
2023-05-20T00:09:26.405Z,2.30
2023-05-20T00:10:27.781Z,2.10
2023-05-20T00:11:29.254Z,2.40
2023-05-20T00:12:30.627Z,2.43
2023-05-20T00:13:32.059Z,2.50
2023-05-20T00:14:33.495Z,2.43
2023-05-20T00:15:36.423Z,2.53
2023-05-20T00:16:38.460Z,2.20
2023-05-20T00:17:39.925Z,2.30
2023-05-20T00:18:41.473Z,2.27
2023-05-20T00:19:42.988Z,2.07
2023-05-20T00:20:44.493Z,2.60
2023-05-20T00:21:45.929Z,2.60
2023-05-20T00:22:47.380Z,2.70
2023-05-20T00:23:48.803Z,2.70
2023-05-20T00:24:50.176Z,2.40
2023-05-20T00:25:51.607Z,2.43
2023-05-20T00:26:53.180Z,2.17
2023-05-20T00:27:54.600Z,2.50
2023-05-20T00:28:56.467Z,2.43
2023-05-20T00:29:57.872Z,2.43
2023-05-20T00:30:59.378Z,2.40
2023-05-20T00:32:00.876Z,2.37
2023-05-20T00:33:02.343Z,2.37
2023-05-20T00:34:03.792Z,2.50
2023-05-20T00:35:05.803Z,2.17
2023-05-20T00:36:07.198Z,2.67
2023-05-20T00:37:08.679Z,2.10
2023-05-20T00:38:10.036Z,2.13
2023-05-20T00:39:12.039Z,2.43
2023-05-20T00:40:15.594Z,2.20
2023-05-20T00:41:17.383Z,2.27
2023-05-20T00:42:26.394Z,2.40
2023-05-20T00:43:27.945Z,2.53
2023-05-20T00:44:29.582Z,2.07
2023-05-20T00:45:31.103Z,2.03
2023-05-20T00:46:32.860Z,2.30
2023-05-20T00:47:36.387Z,2.37
2023-05-20T00:48:42.421Z,2.40
2023-05-20T00:49:49.589Z,2.67
2023-05-20T00:50:53.208Z,2.50
2023-05-20T00:51:54.921Z,2.50
2023-05-20T00:52:56.384Z,2.67
2023-05-20T00:53:58.045Z,2.50
2023-05-20T00:54:59.957Z,2.50
2023-05-20T00:56:01.668Z,2.50
2023-05-20T00:57:05.154Z,2.67
2023-05-20T00:58:06.598Z,2.80
2023-05-20T00:59:08.628Z,2.67
2023-05-20T01:00:10.678Z,2.40
2023-05-20T01:01:12.237Z,2.60
2023-05-20T01:02:14.073Z,2.40
2023-05-20T01:03:15.889Z,2.70
2023-05-20T01:04:17.628Z,2.40
2023-05-20T01:05:19.173Z,2.47
2023-05-20T01:06:20.675Z,2.10
2023-05-20T01:07:22.305Z,2.50
2023-05-20T01:08:24.498Z,2.80
2023-05-20T01:09:25.889Z,2.70
2023-05-20T01:10:29.985Z,2.77
2023-05-20T01:11:34.500Z,3.03
2023-05-20T01:12:38.151Z,2.70
2023-05-20T01:13:43.558Z,2.93
2023-05-20T01:14:53.048Z,2.50
2023-05-20T01:15:55.902Z,2.40
2023-05-20T01:16:58.764Z,2.87
2023-05-20T01:18:01.906Z,2.57
2023-05-20T01:19:04.712Z,2.80
2023-05-20T01:20:10.053Z,2.40
2023-05-20T01:21:12.141Z,2.50
2023-05-20T01:22:14.478Z,2.83
2023-05-20T01:23:17.563Z,2.37
2023-05-20T01:24:19.023Z,2.70
2023-05-20T01:25:20.876Z,3.33
2023-05-20T01:26:27.017Z,2.70
2023-05-20T01:27:30.265Z,2.97
2023-05-20T01:28:32.469Z,2.77
2023-05-20T01:29:33.989Z,2.60
2023-05-20T01:30:37.133Z,2.80
2023-05-20T01:31:38.938Z,2.63
2023-05-20T01:32:44.503Z,2.40
2023-05-20T01:33:47.269Z,2.50
2023-05-20T01:34:49.355Z,2.90
2023-05-20T01:35:51.407Z,2.60
2023-05-20T01:36:54.379Z,2.80
2023-05-20T01:37:57.635Z,2.53
2023-05-20T01:39:00.173Z,2.77
2023-05-20T01:40:03.429Z,2.63
2023-05-20T01:41:05.836Z,3.07
2023-05-20T01:42:08.485Z,2.70
2023-05-20T01:43:10.211Z,2.80
2023-05-20T01:44:11.676Z,2.70
2023-05-20T01:45:13.130Z,2.60
2023-05-20T01:46:15.203Z,3.20
2023-05-20T01:47:16.552Z,2.40
2023-05-20T01:48:18.068Z,2.90
2023-05-20T01:49:19.439Z,2.80
2023-05-20T01:50:21.085Z,3.00
2023-05-20T01:51:22.563Z,2.77
2023-05-20T01:52:24.088Z,2.60
2023-05-20T01:53:25.820Z,2.53
2023-05-20T01:54:27.254Z,2.90
2023-05-20T01:55:28.719Z,2.97
2023-05-20T01:56:30.925Z,2.70
2023-05-20T01:57:33.943Z,2.53
2023-05-20T01:58:35.614Z,2.50
2023-05-20T01:59:37.704Z,2.40
2023-05-20T02:00:39.234Z,2.93
2023-05-20T02:01:40.805Z,2.63
2023-05-20T02:02:42.383Z,2.97
2023-05-20T02:03:46.384Z,2.70
2023-05-20T02:04:48.971Z,3.23
2023-05-20T02:05:50.767Z,2.70
2023-05-20T02:06:52.297Z,2.70
2023-05-20T02:07:53.845Z,3.00
2023-05-20T02:08:55.738Z,2.80
2023-05-20T02:09:57.144Z,3.10
2023-05-20T02:10:58.804Z,3.00
2023-05-20T02:12:03.625Z,2.60
2023-05-20T02:13:09.394Z,2.97
2023-05-20T02:14:11.385Z,2.90
2023-05-20T02:15:12.815Z,2.70
2023-05-20T02:16:15.946Z,2.73
2023-05-20T02:17:17.821Z,2.70
2023-05-20T02:18:19.240Z,2.90
2023-05-20T02:19:23.803Z,3.10
2023-05-20T02:20:25.542Z,2.77
2023-05-20T02:21:26.932Z,2.87
2023-05-20T02:22:28.635Z,3.00
2023-05-20T02:23:33.297Z,3.00
2023-05-20T02:24:34.775Z,2.70
2023-05-20T02:25:36.478Z,2.70
2023-05-20T02:26:37.877Z,2.83
2023-05-20T02:27:40.683Z,2.77
2023-05-20T02:28:46.522Z,2.90
2023-05-20T02:29:48.545Z,2.83
2023-05-20T02:30:52.677Z,2.70
2023-05-20T02:31:54.079Z,3.00
2023-05-20T02:32:56.392Z,3.00
2023-05-20T02:33:57.918Z,3.33
2023-05-20T02:34:59.351Z,3.00
2023-05-20T02:36:00.720Z,2.93
2023-05-20T02:37:02.523Z,2.87
2023-05-20T02:38:05.699Z,3.30
2023-05-20T02:39:07.306Z,2.70
2023-05-20T02:40:09.411Z,3.10
2023-05-20T02:41:12.489Z,2.67
2023-05-20T02:42:13.980Z,2.90
2023-05-20T02:43:15.502Z,2.93
2023-05-20T02:44:17.051Z,2.90
2023-05-20T02:45:18.554Z,3.17
2023-05-20T02:46:21.180Z,3.00
2023-05-20T02:47:22.720Z,3.33
2023-05-20T02:48:24.205Z,3.40
2023-05-20T02:49:25.676Z,3.00
2023-05-20T02:50:27.211Z,3.00
2023-05-20T02:51:28.887Z,3.60
2023-05-20T02:52:30.538Z,3.57
2023-05-20T02:53:32.048Z,3.20
2023-05-20T02:54:33.674Z,3.30
2023-05-20T02:55:36.062Z,3.20
2023-05-20T02:56:37.541Z,3.03
2023-05-20T02:57:39.291Z,3.40
2023-05-20T02:58:42.483Z,3.03
2023-05-20T02:59:44.055Z,2.97
2023-05-20T03:00:45.536Z,3.07
2023-05-20T03:01:47.165Z,2.90
2023-05-20T03:02:48.700Z,3.00
2023-05-20T03:03:50.134Z,3.17
2023-05-20T03:04:53.949Z,3.30
2023-05-20T03:05:55.657Z,2.97
2023-05-20T03:06:58.657Z,3.17
2023-05-20T03:08:01.291Z,3.17
2023-05-20T03:09:03.679Z,3.20
2023-05-20T03:10:06.631Z,3.07
2023-05-20T03:11:08.246Z,3.20
2023-05-20T03:12:09.757Z,2.90
2023-05-20T03:13:11.653Z,3.00
2023-05-20T03:14:13.148Z,3.03
2023-05-20T03:15:14.666Z,2.80
2023-05-20T03:16:16.669Z,2.93
2023-05-20T03:17:19.294Z,3.10
2023-05-20T03:18:20.768Z,2.93
2023-05-20T03:19:22.299Z,3.50
2023-05-20T03:20:23.893Z,3.33
2023-05-20T03:21:26.296Z,2.80
2023-05-20T03:22:27.689Z,3.30
2023-05-20T03:23:29.150Z,3.40
2023-05-20T03:24:30.548Z,2.97
2023-05-20T03:25:32.247Z,3.20
2023-05-20T03:26:37.491Z,2.90
2023-05-20T03:27:39.299Z,2.90
2023-05-20T03:28:40.818Z,3.23
2023-05-20T03:29:42.913Z,2.80
2023-05-20T03:30:44.370Z,2.93
2023-05-20T03:31:46.368Z,2.90
2023-05-20T03:32:47.965Z,2.70
2023-05-20T03:33:49.447Z,2.80
2023-05-20T03:34:51.121Z,3.60
2023-05-20T03:35:52.548Z,2.50
2023-05-20T03:36:54.314Z,3.20
2023-05-20T03:37:56.255Z,3.03
2023-05-20T03:38:59.215Z,2.80
2023-05-20T03:40:00.614Z,2.93
2023-05-20T03:41:02.064Z,2.90
2023-05-20T03:42:03.630Z,2.97
2023-05-20T03:43:06.597Z,3.00
2023-05-20T03:44:08.250Z,3.23
2023-05-20T03:45:10.047Z,2.63
2023-05-20T03:46:18.800Z,2.93
2023-05-20T03:47:20.277Z,3.10
2023-05-20T03:48:21.814Z,3.20
2023-05-20T03:49:23.346Z,2.70
2023-05-20T03:50:24.750Z,2.80
2023-05-20T03:51:26.794Z,3.03
2023-05-20T03:52:30.805Z,2.83
2023-05-20T03:53:32.262Z,3.10
2023-05-20T03:54:35.230Z,2.90
2023-05-20T03:55:37.009Z,3.10
2023-05-20T03:56:38.813Z,3.10
2023-05-20T03:57:40.353Z,2.80
2023-05-20T03:58:42.491Z,2.93
2023-05-20T03:59:44.429Z,3.27
2023-05-20T04:00:46.763Z,3.10
2023-05-20T04:01:48.517Z,3.20
2023-05-20T04:02:50.302Z,3.03
2023-05-20T04:03:53.654Z,3.50
2023-05-20T04:04:57.798Z,3.20
2023-05-20T04:05:59.440Z,3.20
2023-05-20T04:07:00.863Z,2.87
2023-05-20T04:08:04.293Z,3.33
2023-05-20T04:09:05.973Z,3.20
2023-05-20T04:10:08.181Z,3.17
2023-05-20T04:11:09.747Z,3.17
2023-05-20T04:12:11.432Z,3.10
2023-05-20T04:13:13.082Z,2.90
2023-05-20T04:14:15.427Z,3.20
2023-05-20T04:15:17.438Z,3.33
2023-05-20T04:16:29.628Z,3.80
2023-05-20T04:17:31.497Z,3.27
2023-05-20T04:18:33.044Z,3.40
2023-05-20T04:19:34.876Z,3.33
2023-05-20T04:20:36.506Z,3.20
2023-05-20T04:21:38.492Z,3.13
2023-05-20T04:22:40.286Z,3.60
2023-05-20T04:23:41.935Z,3.37
2023-05-20T04:24:43.428Z,3.77
2023-05-20T04:25:46.124Z,3.10
2023-05-20T04:26:48.163Z,3.27
2023-05-20T04:27:49.896Z,3.40
2023-05-20T04:28:51.551Z,3.20
2023-05-20T04:29:55.011Z,3.10
2023-05-20T04:31:00.261Z,3.53
2023-05-20T04:32:01.954Z,3.00
2023-05-20T04:33:04.162Z,2.80
2023-05-20T04:34:06.629Z,3.27
2023-05-20T04:35:09.259Z,3.20
2023-05-20T04:36:12.012Z,3.17
2023-05-20T04:37:14.476Z,3.10
2023-05-20T04:38:16.456Z,3.00
2023-05-20T04:39:18.959Z,3.40
2023-05-20T04:40:21.194Z,3.00
2023-05-20T04:41:22.578Z,3.57
2023-05-20T04:42:24.466Z,3.30
2023-05-20T04:43:26.346Z,3.23
2023-05-20T04:44:28.183Z,3.00
2023-05-20T04:45:29.550Z,3.00
2023-05-20T04:46:31.688Z,3.20
2023-05-20T04:47:38.487Z,2.97
2023-05-20T04:48:40.096Z,3.50
2023-05-20T04:49:42.204Z,3.33
2023-05-20T04:50:44.027Z,3.20
2023-05-20T04:51:46.833Z,3.40
2023-05-20T04:52:48.297Z,3.43
2023-05-20T04:53:51.228Z,3.30
2023-05-20T04:54:52.847Z,3.10
2023-05-20T04:55:54.840Z,3.33
2023-05-20T04:56:56.665Z,3.33
2023-05-20T04:57:58.188Z,3.73
2023-05-20T04:58:59.882Z,3.40
2023-05-20T05:00:02.068Z,3.33
2023-05-20T05:01:03.459Z,3.20
2023-05-20T05:02:04.885Z,3.50
2023-05-20T05:03:06.664Z,3.17
2023-05-20T05:04:08.093Z,2.93
2023-05-20T05:05:10.483Z,3.40
2023-05-20T05:06:12.763Z,3.20
2023-05-20T05:07:14.343Z,3.40
2023-05-20T05:08:17.282Z,3.73
2023-05-20T05:09:23.694Z,3.43
2023-05-20T05:10:25.216Z,3.27
2023-05-20T05:11:26.687Z,3.23
2023-05-20T05:12:28.181Z,3.00
2023-05-20T05:13:29.660Z,3.37
2023-05-20T05:14:31.276Z,3.27
2023-05-20T05:15:32.836Z,3.33
2023-05-20T05:16:34.516Z,3.27
2023-05-20T05:17:36.599Z,3.70
2023-05-20T05:18:37.969Z,3.33
2023-05-20T05:19:40.124Z,3.60
2023-05-20T05:20:42.385Z,3.67
2023-05-20T05:21:43.937Z,3.27
2023-05-20T05:22:45.500Z,3.70
2023-05-20T05:23:47.592Z,3.50
2023-05-20T05:24:49.254Z,3.77
2023-05-20T05:25:53.873Z,3.60
2023-05-20T05:26:55.909Z,3.97
2023-05-20T05:27:57.307Z,3.47
2023-05-20T05:28:58.775Z,3.40
2023-05-20T05:30:00.486Z,3.60
2023-05-20T05:31:02.773Z,3.30
2023-05-20T05:32:05.269Z,3.33
2023-05-20T05:33:06.800Z,3.43
2023-05-20T05:34:08.308Z,3.30
2023-05-20T05:35:09.928Z,3.37
2023-05-20T05:36:11.366Z,3.27
2023-05-20T05:37:12.770Z,3.43
2023-05-20T05:38:14.274Z,3.37
2023-05-20T05:39:15.740Z,3.53
2023-05-20T05:40:17.279Z,3.50
2023-05-20T05:41:18.717Z,3.17
2023-05-20T05:42:20.197Z,3.57
2023-05-20T05:43:21.587Z,3.90
2023-05-20T05:44:23.481Z,3.43
2023-05-20T05:45:24.912Z,3.30
2023-05-20T05:46:26.333Z,3.33
2023-05-20T05:47:32.372Z,2.97
2023-05-20T05:48:34.003Z,3.50
2023-05-20T05:49:35.401Z,3.57
2023-05-20T05:50:37.408Z,3.53
2023-05-20T05:51:40.987Z,3.40
2023-05-20T05:52:42.381Z,3.53
2023-05-20T05:53:44.506Z,3.13
2023-05-20T05:54:46.247Z,3.60
2023-05-20T05:55:47.716Z,3.63
2023-05-20T05:56:51.506Z,3.60
2023-05-20T05:57:53.085Z,3.77
2023-05-20T05:58:54.528Z,3.60
2023-05-20T05:59:55.937Z,3.40
2023-05-20T06:00:58.235Z,3.37
2023-05-20T06:01:59.659Z,3.67
2023-05-20T06:03:01.384Z,3.30
2023-05-20T06:04:07.523Z,3.57
2023-05-20T06:05:09.941Z,3.57
2023-05-20T06:06:11.309Z,3.70
2023-05-20T06:07:13.046Z,3.83
2023-05-20T06:08:14.873Z,3.90
2023-05-20T06:09:16.383Z,3.30
2023-05-20T06:10:20.058Z,3.40
2023-05-20T06:11:23.032Z,3.87
2023-05-20T06:12:27.054Z,3.70
2023-05-20T06:13:28.449Z,3.43
2023-05-20T06:14:32.522Z,3.80
2023-05-20T06:15:34.158Z,3.80
2023-05-20T06:16:37.352Z,3.50
2023-05-20T06:17:38.939Z,4.10
2023-05-20T06:18:40.412Z,3.70
2023-05-20T06:19:41.952Z,3.63
2023-05-20T06:20:43.636Z,3.60
2023-05-20T06:21:45.662Z,3.77
2023-05-20T06:22:47.098Z,4.17
2023-05-20T06:23:48.656Z,3.50
2023-05-20T06:24:50.154Z,3.30
2023-05-20T06:25:52.532Z,3.90
2023-05-20T06:26:54.124Z,3.70
2023-05-20T06:27:55.542Z,3.40
2023-05-20T06:28:58.146Z,3.87
2023-05-20T06:30:01.413Z,4.20
2023-05-20T06:31:04.195Z,4.20
2023-05-20T06:32:08.571Z,3.60
2023-05-20T06:33:10.060Z,3.70
2023-05-20T06:34:11.483Z,4.10
2023-05-20T06:35:13.033Z,4.07
2023-05-20T06:36:14.485Z,4.07
2023-05-20T06:37:16.012Z,3.90
2023-05-20T06:38:17.397Z,4.03
2023-05-20T06:39:19.806Z,3.83
2023-05-20T06:40:21.219Z,3.83
2023-05-20T06:41:22.873Z,4.40
2023-05-20T06:42:26.620Z,4.37
2023-05-20T06:43:38.154Z,4.00
2023-05-20T06:44:44.358Z,4.20
2023-05-20T06:45:54.753Z,4.47
2023-05-20T06:47:06.290Z,3.83
2023-05-20T06:48:08.012Z,4.30
2023-05-20T06:49:09.488Z,4.00
2023-05-20T06:50:11.156Z,4.20
2023-05-20T06:51:12.585Z,4.07
2023-05-20T06:52:14.654Z,4.10
2023-05-20T06:53:16.975Z,3.70
2023-05-20T06:54:18.405Z,4.10
2023-05-20T06:55:20.408Z,3.90
2023-05-20T06:56:22.152Z,4.07
2023-05-20T06:57:23.772Z,4.32
2023-05-20T06:58:25.209Z,4.10
2023-05-20T06:59:27.307Z,3.80
2023-05-20T07:00:28.699Z,4.03
2023-05-20T07:01:30.133Z,3.80
2023-05-20T07:02:33.098Z,3.70
2023-05-20T07:03:34.507Z,4.20
2023-05-20T07:04:36.519Z,3.78
2023-05-20T07:05:38.068Z,4.30
2023-05-20T07:06:39.449Z,3.90
2023-05-20T07:07:40.827Z,3.90
2023-05-20T07:08:42.234Z,3.90
2023-05-20T07:09:45.450Z,3.85
2023-05-20T07:10:46.994Z,3.80
2023-05-20T07:11:52.062Z,4.05
2023-05-20T07:12:53.452Z,3.67
2023-05-20T07:13:54.871Z,4.80
2023-05-20T07:14:57.304Z,3.80
2023-05-20T07:15:58.889Z,4.00
2023-05-20T07:17:01.333Z,3.83
2023-05-20T07:18:03.652Z,3.65
2023-05-20T07:19:05.098Z,4.35
2023-05-20T07:20:08.125Z,3.80
2023-05-20T07:21:10.477Z,3.88
2023-05-20T07:22:30.162Z,3.92
2023-05-20T07:23:48.429Z,3.97
2023-05-20T07:24:50.553Z,3.90
2023-05-20T07:25:52.924Z,3.95
2023-05-20T07:26:54.386Z,3.80
2023-05-20T07:27:55.798Z,3.72
2023-05-20T07:28:57.272Z,3.80
2023-05-20T07:29:58.867Z,3.70
2023-05-20T07:31:02.535Z,3.90
2023-05-20T07:32:06.108Z,3.90
2023-05-20T07:33:08.914Z,3.72
2023-05-20T07:34:10.402Z,4.20
2023-05-20T07:35:12.316Z,3.90
2023-05-20T07:36:14.884Z,3.90
2023-05-20T07:37:18.533Z,3.88
2023-05-20T07:38:23.031Z,3.92
2023-05-20T07:39:32.092Z,3.92
2023-05-20T07:40:34.168Z,4.13
2023-05-20T07:41:43.448Z,3.92
2023-05-20T07:42:45.153Z,3.47
2023-05-20T07:43:46.880Z,3.95
2023-05-20T07:44:48.318Z,3.80
2023-05-20T07:45:49.752Z,3.85
2023-05-20T07:46:51.211Z,3.67
2023-05-20T07:47:54.558Z,3.83
2023-05-20T07:48:55.935Z,3.90
2023-05-20T07:49:57.615Z,3.92
2023-05-20T07:50:59.712Z,4.10
2023-05-20T07:52:03.194Z,3.85
2023-05-20T07:53:05.928Z,3.75
2023-05-20T07:54:08.712Z,3.55
2023-05-20T07:55:11.462Z,4.20
2023-05-20T07:56:13.408Z,3.90
2023-05-20T07:57:15.476Z,4.10
2023-05-20T07:58:16.830Z,4.00
2023-05-20T07:59:19.028Z,3.72
2023-05-20T08:00:23.082Z,3.78
2023-05-20T08:01:25.722Z,3.85
2023-05-20T08:02:27.142Z,4.22
2023-05-20T08:03:29.023Z,3.80
2023-05-20T08:04:38.541Z,3.63
2023-05-20T08:05:43.695Z,4.10
2023-05-20T08:06:45.338Z,3.72
2023-05-20T08:07:52.223Z,3.70
2023-05-20T08:08:58.545Z,3.75
2023-05-20T08:10:05.067Z,3.63
2023-05-20T08:11:07.113Z,3.97
2023-05-20T08:12:08.635Z,3.67
2023-05-20T08:13:10.007Z,3.97
2023-05-20T08:14:13.375Z,3.80
2023-05-20T08:15:18.105Z,4.07
2023-05-20T08:16:21.659Z,3.67
2023-05-20T08:17:23.321Z,3.80
2023-05-20T08:18:25.060Z,4.00
2023-05-20T08:19:26.606Z,3.90
2023-05-20T08:20:29.472Z,3.97
2023-05-20T08:21:32.226Z,3.72
2023-05-20T08:22:33.859Z,4.05
2023-05-20T08:23:38.708Z,4.15
2023-05-20T08:24:41.198Z,4.00
2023-05-20T08:25:45.059Z,3.95
2023-05-20T08:26:46.770Z,3.92
2023-05-20T08:27:49.225Z,3.90
2023-05-20T08:28:52.033Z,3.88
2023-05-20T08:29:54.309Z,3.72
2023-05-20T08:30:57.985Z,3.85
2023-05-20T08:32:02.061Z,3.90
2023-05-20T08:33:03.741Z,4.10
2023-05-20T08:34:06.018Z,3.72
2023-05-20T08:35:07.706Z,4.00
2023-05-20T08:36:09.418Z,4.10
2023-05-20T08:37:11.126Z,4.35
2023-05-20T08:38:12.596Z,4.40
2023-05-20T08:39:13.966Z,4.10
2023-05-20T08:40:15.613Z,4.10
2023-05-20T08:41:16.958Z,4.50
2023-05-20T08:42:21.703Z,4.00
2023-05-20T08:43:23.673Z,4.20
2023-05-20T08:44:25.987Z,4.22
2023-05-20T08:45:28.546Z,3.90
2023-05-20T08:46:34.688Z,3.95
2023-05-20T08:47:36.414Z,4.05
2023-05-20T08:48:37.862Z,4.03
2023-05-20T08:49:39.244Z,4.20
2023-05-20T08:50:40.797Z,4.00
2023-05-20T08:51:43.090Z,4.47
2023-05-20T08:52:45.980Z,4.28
2023-05-20T08:53:47.477Z,4.03
2023-05-20T08:54:50.028Z,4.07
2023-05-20T08:56:03.140Z,4.35
2023-05-20T08:57:05.262Z,4.13
2023-05-20T08:58:07.065Z,4.55
2023-05-20T08:59:08.784Z,4.38
2023-05-20T09:00:13.439Z,3.97
2023-05-20T09:01:14.917Z,4.10
2023-05-20T09:02:16.433Z,4.20
2023-05-20T09:03:18.511Z,4.40
2023-05-20T09:04:19.875Z,4.28
2023-05-20T09:05:22.260Z,4.13
2023-05-20T09:06:24.140Z,3.72
2023-05-20T09:07:28.953Z,4.55
2023-05-20T09:08:30.798Z,4.13
2023-05-20T09:09:34.069Z,4.55
2023-05-20T09:10:36.561Z,4.55
2023-05-20T09:11:38.072Z,4.57
2023-05-20T09:12:39.689Z,4.47
2023-05-20T09:13:41.275Z,4.47
2023-05-20T09:14:43.099Z,4.30
2023-05-20T09:15:44.661Z,4.32
2023-05-20T09:16:46.094Z,4.28
2023-05-20T09:17:49.800Z,4.70
2023-05-20T09:18:54.877Z,4.57
2023-05-20T09:19:56.535Z,4.65
2023-05-20T09:21:04.842Z,4.82
2023-05-20T09:22:06.279Z,4.75
2023-05-20T09:23:08.803Z,4.55
2023-05-20T09:24:10.234Z,5.15
2023-05-20T09:25:13.276Z,4.72
2023-05-20T09:26:14.897Z,4.60
2023-05-20T09:27:16.327Z,4.30
2023-05-20T09:28:25.129Z,4.35
2023-05-20T09:29:26.804Z,4.53
2023-05-20T09:30:28.310Z,4.50
2023-05-20T09:31:36.359Z,4.82
2023-05-20T09:32:38.311Z,4.32
2023-05-20T09:33:39.773Z,4.47
2023-05-20T09:34:45.546Z,4.15
2023-05-20T09:35:47.018Z,4.00
2023-05-20T09:36:50.747Z,4.00
2023-05-20T09:37:54.248Z,4.30
2023-05-20T09:39:00.498Z,4.18
2023-05-20T09:40:04.284Z,4.20
2023-05-20T09:41:08.146Z,4.00
2023-05-20T09:42:15.439Z,4.45
2023-05-20T09:43:18.175Z,4.80
2023-05-20T09:44:20.315Z,4.00
2023-05-20T09:45:22.892Z,4.45
2023-05-20T09:46:24.585Z,4.13
2023-05-20T09:47:26.960Z,3.95
2023-05-20T09:48:29.399Z,4.10
2023-05-20T09:49:31.074Z,3.70
2023-05-20T09:50:32.763Z,4.10
2023-05-20T09:51:34.422Z,4.13
2023-05-20T09:52:37.201Z,4.57
2023-05-20T09:53:38.749Z,3.92
2023-05-20T09:54:40.416Z,4.03
2023-05-20T09:55:42.353Z,4.22
2023-05-20T09:56:44.110Z,3.92
2023-05-20T09:57:45.864Z,3.97
2023-05-20T09:58:47.511Z,4.00
2023-05-20T09:59:50.366Z,4.05
2023-05-20T10:00:52.636Z,3.95
2023-05-20T10:01:54.162Z,3.75
2023-05-20T10:02:56.277Z,3.70
2023-05-20T10:03:58.040Z,3.58
2023-05-20T10:05:01.825Z,4.25
2023-05-20T10:06:17.397Z,3.80
2023-05-20T10:07:41.401Z,4.03
2023-05-20T10:09:02.847Z,3.80
2023-05-20T10:10:07.023Z,4.35
2023-05-20T10:11:19.700Z,4.20
2023-05-20T10:12:43.511Z,3.92
2023-05-20T10:13:50.820Z,3.92
2023-05-20T10:15:10.604Z,4.28
2023-05-20T10:16:32.330Z,4.45
2023-05-20T10:17:43.913Z,3.88
2023-05-20T10:18:55.124Z,4.15
2023-05-20T10:20:00.555Z,3.80
2023-05-20T10:21:02.048Z,4.10
2023-05-20T10:22:04.523Z,4.25
2023-05-20T10:23:06.015Z,4.22
2023-05-20T10:24:08.176Z,4.82
2023-05-20T10:25:12.933Z,4.20
2023-05-20T10:26:14.531Z,3.92
2023-05-20T10:27:17.856Z,4.28
2023-05-20T10:28:32.892Z,3.88
2023-05-20T10:29:50.286Z,4.20
2023-05-20T10:30:51.970Z,3.83
2023-05-20T10:31:53.382Z,4.10
2023-05-20T10:32:57.506Z,4.38
2023-05-20T10:33:59.128Z,4.18
2023-05-20T10:35:02.250Z,4.28
2023-05-20T10:36:03.804Z,3.60
2023-05-20T10:37:05.259Z,3.70
2023-05-20T10:38:13.051Z,4.05
2023-05-20T10:39:17.940Z,4.03
2023-05-20T10:40:20.497Z,4.13
2023-05-20T10:41:26.794Z,4.38
2023-05-20T10:42:29.423Z,4.05
2023-05-20T10:43:30.964Z,4.20
2023-05-20T10:44:42.729Z,4.22
2023-05-20T10:45:48.130Z,4.03
2023-05-20T10:48:08.680Z,4.20
2023-05-20T10:49:26.753Z,4.50
2023-05-20T10:50:29.746Z,3.90
2023-05-20T10:51:36.129Z,4.40
2023-05-20T10:52:37.797Z,4.10
2023-05-20T10:53:40.578Z,3.95
2023-05-20T10:54:47.724Z,4.13
2023-05-20T10:55:52.032Z,4.07
2023-05-20T10:56:53.911Z,3.80
2023-05-20T10:57:55.571Z,3.83
2023-05-20T10:58:56.983Z,4.00
2023-05-20T10:59:59.128Z,4.00
2023-05-20T11:01:01.816Z,3.60
2023-05-20T11:02:03.695Z,4.47
2023-05-20T11:03:05.841Z,3.90
2023-05-20T11:04:08.433Z,4.35
2023-05-20T11:05:11.466Z,4.38
2023-05-20T11:06:18.387Z,3.90
2023-05-20T11:07:26.681Z,3.67
2023-05-20T11:08:29.797Z,3.90
2023-05-20T11:09:31.929Z,4.30
2023-05-20T11:10:34.030Z,4.10
2023-05-20T11:11:38.554Z,4.57
2023-05-20T11:12:39.987Z,4.05
2023-05-20T11:13:41.533Z,4.30
2023-05-20T11:14:43.334Z,3.83
2023-05-20T11:15:44.802Z,4.10
2023-05-20T11:16:46.788Z,4.32
2023-05-20T11:17:59.627Z,3.92
2023-05-20T11:19:01.145Z,4.50
2023-05-20T11:20:02.528Z,4.57
2023-05-20T11:21:03.992Z,4.65
2023-05-20T11:22:07.396Z,4.55
2023-05-20T11:23:12.599Z,4.53
2023-05-20T11:24:14.628Z,4.32
2023-05-20T11:25:16.834Z,4.32
2023-05-20T11:26:18.415Z,4.10
2023-05-20T11:27:19.995Z,4.07
2023-05-20T11:28:21.854Z,4.15
2023-05-20T11:29:23.530Z,4.00
2023-05-20T11:30:25.497Z,3.90
2023-05-20T11:31:27.141Z,4.20
2023-05-20T11:32:29.105Z,4.30
2023-05-20T11:33:32.915Z,4.03
2023-05-20T11:34:38.081Z,4.43
2023-05-20T11:35:45.048Z,4.40
2023-05-20T11:36:46.601Z,4.57
2023-05-20T11:37:54.134Z,4.32
2023-05-20T11:38:57.879Z,4.30
2023-05-20T11:40:08.965Z,4.80
2023-05-20T11:41:10.435Z,4.38
2023-05-20T11:42:11.942Z,4.25
2023-05-20T11:43:14.410Z,4.47
2023-05-20T11:44:15.828Z,4.38
2023-05-20T11:45:17.625Z,4.10
2023-05-20T11:46:21.089Z,4.05
2023-05-20T11:47:27.678Z,4.35
2023-05-20T11:48:29.277Z,4.00
2023-05-20T11:49:31.316Z,3.88
2023-05-20T11:50:40.620Z,4.22
2023-05-20T11:51:43.243Z,3.90
2023-05-20T11:52:44.626Z,3.90
2023-05-20T11:53:46.824Z,4.25
2023-05-20T11:54:52.520Z,4.38
2023-05-20T11:55:55.337Z,4.40
2023-05-20T11:56:58.582Z,4.28
2023-05-20T11:58:00.729Z,4.47
2023-05-20T11:59:02.686Z,4.30
2023-05-20T12:00:07.195Z,4.28
2023-05-20T12:01:20.823Z,4.30
2023-05-20T12:02:23.542Z,4.90
2023-05-20T12:03:25.287Z,4.53
2023-05-20T12:04:26.915Z,4.38
2023-05-20T12:05:28.388Z,4.57
2023-05-20T12:06:29.695Z,4.45
2023-05-20T12:07:31.140Z,4.30
2023-05-20T12:08:32.655Z,3.88
2023-05-20T12:09:33.988Z,4.30
2023-05-20T12:10:37.427Z,3.90
2023-05-20T12:11:44.502Z,4.50
2023-05-20T12:12:46.542Z,4.30
2023-05-20T12:13:48.360Z,4.43
2023-05-20T12:14:49.766Z,4.32
2023-05-20T12:15:51.176Z,4.35
2023-05-20T12:16:53.701Z,4.28
2023-05-20T12:17:55.212Z,4.10
2023-05-20T12:18:56.655Z,4.22
2023-05-20T12:19:58.092Z,3.85
2023-05-20T12:20:59.865Z,4.10
2023-05-20T12:22:02.188Z,4.47
2023-05-20T12:23:04.015Z,4.30
2023-05-20T12:24:06.924Z,4.38
2023-05-20T12:25:08.837Z,4.65
2023-05-20T12:26:10.239Z,4.60
2023-05-20T12:27:11.622Z,4.57
2023-05-20T12:28:13.125Z,4.68
2023-05-20T12:29:14.706Z,5.03
2023-05-20T12:30:19.977Z,4.35
2023-05-20T12:31:21.348Z,4.35
2023-05-20T12:32:23.542Z,4.38
2023-05-20T12:33:25.076Z,4.50
2023-05-20T12:34:26.410Z,4.55
2023-05-20T12:35:37.798Z,4.20
2023-05-20T12:36:39.295Z,4.70
2023-05-20T12:37:43.900Z,4.50
2023-05-20T12:38:45.370Z,4.38
2023-05-20T12:39:46.728Z,4.35
2023-05-20T12:40:48.147Z,4.60
2023-05-20T12:41:49.604Z,4.88
2023-05-20T12:42:51.288Z,4.40
2023-05-20T12:43:52.757Z,4.72
2023-05-20T12:44:54.119Z,4.90
2023-05-20T12:45:55.980Z,5.10
2023-05-20T12:46:57.475Z,4.75
2023-05-20T12:47:59.333Z,4.95
2023-05-20T12:49:00.837Z,4.45
2023-05-20T12:50:02.770Z,4.97
2023-05-20T12:51:04.204Z,4.70
2023-05-20T12:52:08.711Z,4.82
2023-05-20T12:53:13.574Z,5.03
2023-05-20T12:54:14.926Z,5.13
2023-05-20T12:55:16.593Z,4.53
2023-05-20T12:56:19.126Z,4.72
2023-05-20T12:57:20.803Z,4.75
2023-05-20T12:58:22.218Z,4.80
2023-05-20T12:59:23.622Z,5.68
2023-05-20T13:00:25.076Z,5.22
2023-05-20T13:01:26.542Z,5.10
2023-05-20T13:02:28.051Z,4.63
2023-05-20T13:03:29.662Z,4.78
2023-05-20T13:04:31.280Z,5.10
2023-05-20T13:05:32.650Z,4.72
2023-05-20T13:06:34.510Z,4.47
2023-05-20T13:07:36.091Z,4.70
2023-05-20T13:08:37.420Z,4.68
2023-05-20T13:09:38.807Z,4.85
2023-05-20T13:10:40.468Z,4.50
2023-05-20T13:11:42.190Z,4.85
2023-05-20T13:12:46.238Z,4.82
2023-05-20T13:13:47.819Z,4.10
2023-05-20T13:14:49.442Z,4.60
2023-05-20T13:15:51.056Z,5.03
2023-05-20T13:16:55.104Z,5.38
2023-05-20T13:17:57.218Z,5.15
2023-05-20T13:18:58.973Z,4.72
2023-05-20T13:20:00.933Z,4.75
2023-05-20T13:21:02.691Z,4.95
2023-05-20T13:22:04.835Z,4.70
2023-05-20T13:23:07.057Z,4.88
2023-05-20T13:24:09.160Z,4.55
2023-05-20T13:25:11.130Z,5.05
2023-05-20T13:26:12.586Z,4.93
2023-05-20T13:27:14.467Z,5.43
2023-05-20T13:28:18.818Z,4.85
2023-05-20T13:29:21.562Z,5.32
2023-05-20T13:30:23.077Z,4.90
2023-05-20T13:31:24.941Z,5.10
2023-05-20T13:32:26.407Z,4.78
2023-05-20T13:33:28.038Z,5.20
2023-05-20T13:34:30.280Z,5.20
2023-05-20T13:35:31.754Z,5.13
2023-05-20T13:36:33.607Z,5.22
2023-05-20T13:37:35.026Z,5.07
2023-05-20T13:38:37.446Z,5.07
2023-05-20T13:39:39.120Z,4.85
2023-05-20T13:40:40.490Z,5.28
2023-05-20T13:41:42.343Z,5.72
2023-05-20T13:42:44.204Z,5.13
2023-05-20T13:43:45.617Z,5.40
2023-05-20T13:44:47.348Z,4.93
2023-05-20T13:45:48.721Z,5.30
2023-05-20T13:46:50.154Z,5.53
2023-05-20T13:47:51.728Z,5.43
2023-05-20T13:48:53.193Z,5.30
2023-05-20T13:49:54.624Z,5.30
2023-05-20T13:50:55.996Z,5.13
2023-05-20T13:51:57.382Z,5.28
2023-05-20T13:52:58.768Z,5.00
2023-05-20T13:54:00.852Z,5.22
2023-05-20T13:55:02.470Z,5.00
2023-05-20T13:56:03.963Z,5.43